createdAt,value
2023-03-04T00:01:02.104Z,79.40
2023-03-04T00:03:37.401Z,79.17
2023-03-04T00:06:10.872Z,78.92
2023-03-04T00:08:44.261Z,78.86
2023-03-04T00:11:17.660Z,78.86
2023-03-04T00:13:50.520Z,78.76
2023-03-04T00:16:23.610Z,78.86
2023-03-04T00:18:58.665Z,79.05
2023-03-04T00:21:32.538Z,79.21
2023-03-04T00:24:07.174Z,79.28
2023-03-04T00:26:41.567Z,79.40
2023-03-04T00:29:14.489Z,79.40
2023-03-04T00:31:48.079Z,79.58
2023-03-04T00:34:21.656Z,79.77
2023-03-04T00:36:56.791Z,79.85
2023-03-04T00:39:30.342Z,79.94
2023-03-04T00:42:03.216Z,80.11
2023-03-04T00:44:36.716Z,80.17
2023-03-04T00:47:09.701Z,80.28
2023-03-04T00:49:43.408Z,80.45
2023-03-04T00:52:16.780Z,80.55
2023-03-04T00:54:51.131Z,80.62
2023-03-04T00:57:24.635Z,80.72
2023-03-04T00:59:58.242Z,80.78
2023-03-04T01:02:31.175Z,80.94
2023-03-04T01:05:06.429Z,81.07
2023-03-04T01:07:39.845Z,81.25
2023-03-04T01:10:15.599Z,81.48
2023-03-04T01:12:49.166Z,81.67
2023-03-04T01:15:22.350Z,81.90
2023-03-04T01:17:56.473Z,82.07
2023-03-04T01:20:29.311Z,82.23
2023-03-04T01:23:02.356Z,82.41
2023-03-04T01:25:35.656Z,82.53
2023-03-04T01:28:08.753Z,82.83
2023-03-04T01:30:42.429Z,83.03
2023-03-04T01:33:16.189Z,82.99
2023-03-04T01:35:49.676Z,83.10
2023-03-04T01:38:23.121Z,83.15
2023-03-04T01:40:56.450Z,83.20
2023-03-04T01:43:31.729Z,83.25
2023-03-04T01:46:05.310Z,83.39
2023-03-04T01:48:40.489Z,83.54
2023-03-04T01:51:19.614Z,83.72
2023-03-04T01:53:55.093Z,83.85
2023-03-04T01:56:31.864Z,84.01
2023-03-04T01:59:15.438Z,84.17
2023-03-04T02:01:55.838Z,84.19
2023-03-04T02:04:34.783Z,84.33
2023-03-04T02:07:09.526Z,84.47
2023-03-04T02:09:42.904Z,84.59
2023-03-04T02:12:18.954Z,84.83
2023-03-04T02:14:51.894Z,84.96
2023-03-04T02:17:29.052Z,85.18
2023-03-04T02:20:35.458Z,85.20
2023-03-04T02:23:25.365Z,85.31
2023-03-04T02:26:20.756Z,85.58
2023-03-04T02:28:57.336Z,85.66
2023-03-04T02:31:37.643Z,85.88
2023-03-04T02:34:16.757Z,86.12
2023-03-04T02:36:52.942Z,86.44
2023-03-04T02:39:38.686Z,86.78
2023-03-04T02:42:12.639Z,87.06
2023-03-04T02:44:50.166Z,87.22
2023-03-04T02:47:24.394Z,87.48
2023-03-04T02:49:57.035Z,87.80
2023-03-04T02:52:30.785Z,88.03
2023-03-04T02:55:03.803Z,88.25
2023-03-04T02:57:36.614Z,88.45
2023-03-04T03:00:11.122Z,88.68
2023-03-04T03:02:44.751Z,88.93
2023-03-04T03:05:18.195Z,89.01
2023-03-04T03:07:51.422Z,89.18
2023-03-04T03:10:25.759Z,89.41
2023-03-04T03:12:59.217Z,89.50
2023-03-04T03:15:32.912Z,89.51
2023-03-04T03:18:05.712Z,89.69
2023-03-04T03:20:39.087Z,89.83
2023-03-04T03:23:12.703Z,90.06
2023-03-04T03:25:45.593Z,90.23
2023-03-04T03:28:18.945Z,90.37
2023-03-04T03:30:52.118Z,90.36
2023-03-04T03:33:25.459Z,90.33
2023-03-04T03:35:58.278Z,90.34
2023-03-04T03:38:31.349Z,90.34
2023-03-04T03:41:04.501Z,90.36
2023-03-04T03:43:37.617Z,90.38
2023-03-04T03:46:10.506Z,90.39
2023-03-04T03:48:44.255Z,90.35
2023-03-04T03:51:18.073Z,90.32
2023-03-04T03:53:50.859Z,90.37
2023-03-04T03:56:23.687Z,90.32
2023-03-04T03:58:56.770Z,90.38
2023-03-04T04:01:29.933Z,90.51
2023-03-04T04:04:03.267Z,90.45
2023-03-04T04:06:36.125Z,90.50
2023-03-04T04:09:08.986Z,90.49
2023-03-04T04:11:42.009Z,90.61
2023-03-04T04:14:16.196Z,90.67
2023-03-04T04:16:49.106Z,90.70
2023-03-04T04:19:22.754Z,90.58
2023-03-04T04:21:55.173Z,90.66
2023-03-04T04:24:28.233Z,90.86
2023-03-04T04:27:02.193Z,90.86
2023-03-04T04:29:36.608Z,91.14
2023-03-04T04:32:12.072Z,91.40
2023-03-04T04:34:45.525Z,91.89
2023-03-04T04:37:18.690Z,91.97
2023-03-04T04:39:52.404Z,91.85
2023-03-04T04:42:26.229Z,91.84
2023-03-04T04:44:59.746Z,92.02
2023-03-04T04:47:32.869Z,92.43
2023-03-04T04:50:07.658Z,92.63
2023-03-04T04:52:42.253Z,92.69
2023-03-04T04:55:15.241Z,92.90
2023-03-04T04:57:48.277Z,93.16
2023-03-04T05:00:21.630Z,93.35
2023-03-04T05:02:55.476Z,93.51
2023-03-04T05:05:28.163Z,93.55
2023-03-04T05:08:01.568Z,93.52
2023-03-04T05:10:35.254Z,93.79
2023-03-04T05:13:08.128Z,93.97
2023-03-04T05:15:42.134Z,93.98
2023-03-04T05:18:14.984Z,93.98
2023-03-04T05:20:56.985Z,93.97
2023-03-04T05:23:34.261Z,93.73
2023-03-04T05:26:07.986Z,93.80
2023-03-04T05:28:41.020Z,93.86
2023-03-04T05:31:14.452Z,94.02
2023-03-04T05:33:48.774Z,94.01
2023-03-04T05:36:21.635Z,94.04
2023-03-04T05:38:54.727Z,94.19
2023-03-04T05:41:28.067Z,94.08
2023-03-04T05:44:01.527Z,94.12
2023-03-04T05:46:34.675Z,93.87
2023-03-04T05:49:08.019Z,93.70
2023-03-04T05:51:40.909Z,93.28
2023-03-04T05:54:13.955Z,93.33
2023-03-04T05:56:47.506Z,93.49
2023-03-04T05:59:20.994Z,93.38
2023-03-04T06:01:54.218Z,92.90
2023-03-04T06:04:27.004Z,92.30
2023-03-04T06:07:00.503Z,91.87
2023-03-04T06:09:34.225Z,91.40
2023-03-04T06:12:07.357Z,91.23
2023-03-04T06:14:40.809Z,91.11
2023-03-04T06:17:14.069Z,90.89
2023-03-04T06:19:46.958Z,90.38
2023-03-04T06:22:20.208Z,90.06
2023-03-04T06:24:53.167Z,90.11
2023-03-04T06:27:26.984Z,90.01
2023-03-04T06:30:01.948Z,89.90
2023-03-04T06:32:34.109Z,89.57
2023-03-04T06:35:07.867Z,89.21
2023-03-04T06:37:40.767Z,88.65
2023-03-04T06:40:14.211Z,88.40
2023-03-04T06:42:48.901Z,88.45
2023-03-04T06:45:23.326Z,88.46
2023-03-04T06:47:56.507Z,88.05
2023-03-04T06:50:29.269Z,87.83
2023-03-04T06:53:03.034Z,87.10
2023-03-04T06:55:36.639Z,87.04
2023-03-04T06:58:09.883Z,86.60
2023-03-04T07:00:42.687Z,85.92
2023-03-04T07:03:16.399Z,85.14
2023-03-04T07:05:50.107Z,84.79
2023-03-04T07:08:23.100Z,84.74
2023-03-04T07:10:57.051Z,84.50
2023-03-04T07:13:29.928Z,83.97
2023-03-04T07:16:03.672Z,82.88
2023-03-04T07:18:38.288Z,82.07
2023-03-04T07:21:11.910Z,81.44
2023-03-04T07:23:46.024Z,81.06
2023-03-04T07:26:19.528Z,80.70
2023-03-04T07:28:54.317Z,79.30
2023-03-04T07:31:31.390Z,78.44
2023-03-04T07:34:08.490Z,78.23
2023-03-04T07:36:42.178Z,76.26
2023-03-04T07:39:15.899Z,74.60
2023-03-04T07:41:48.614Z,72.61
2023-03-04T07:44:22.143Z,71.74
2023-03-04T07:46:54.936Z,72.40
2023-03-04T07:49:28.228Z,70.77
2023-03-04T07:52:07.246Z,69.91
2023-03-04T07:54:40.388Z,70.02
2023-03-04T07:57:14.186Z,70.40
2023-03-04T07:59:48.290Z,69.51
2023-03-04T08:02:21.007Z,68.96
2023-03-04T08:04:53.991Z,67.37
2023-03-04T08:07:27.315Z,66.27
2023-03-04T08:10:00.902Z,65.29
2023-03-04T08:12:34.049Z,64.99
2023-03-04T08:15:08.645Z,64.90
2023-03-04T08:17:42.060Z,64.78
2023-03-04T08:20:15.433Z,63.41
2023-03-04T08:22:48.374Z,62.80
2023-03-04T08:25:21.564Z,61.98
2023-03-04T08:27:54.722Z,62.55
2023-03-04T08:30:27.475Z,63.38
2023-03-04T08:33:00.414Z,62.82
2023-03-04T08:35:35.114Z,61.71
2023-03-04T08:38:08.385Z,61.77
2023-03-04T08:40:42.514Z,62.47
2023-03-04T08:43:16.292Z,61.19
2023-03-04T08:45:49.487Z,61.69
2023-03-04T08:48:23.077Z,60.84
2023-03-04T08:50:56.352Z,61.45
2023-03-04T08:53:29.914Z,61.44
2023-03-04T08:56:02.867Z,62.23
2023-03-04T08:58:36.863Z,62.36
2023-03-04T09:01:12.638Z,61.99
2023-03-04T09:03:46.000Z,61.23
2023-03-04T09:06:19.584Z,61.02
2023-03-04T09:08:52.476Z,61.07
2023-03-04T09:11:26.161Z,61.35
2023-03-04T09:14:00.077Z,61.59
2023-03-04T09:16:33.451Z,60.36
2023-03-04T09:19:06.447Z,59.09
2023-03-04T09:21:39.827Z,59.56
2023-03-04T09:24:12.611Z,60.57
2023-03-04T09:26:46.270Z,60.83
2023-03-04T09:29:19.687Z,60.00
2023-03-04T09:31:52.493Z,60.04
2023-03-04T09:34:25.260Z,60.49
2023-03-04T09:36:58.126Z,60.13
2023-03-04T09:39:31.642Z,59.24
2023-03-04T09:42:05.634Z,59.26
2023-03-04T09:44:44.378Z,60.04
2023-03-04T09:47:19.175Z,60.73
2023-03-04T09:50:00.142Z,60.09
2023-03-04T09:53:08.078Z,59.77
2023-03-04T09:55:47.823Z,58.99
2023-03-04T09:58:51.061Z,58.66
2023-03-04T10:01:41.405Z,58.88
2023-03-04T10:04:33.588Z,59.14
2023-03-04T10:07:11.577Z,58.71
2023-03-04T10:09:55.216Z,58.39
2023-03-04T10:12:31.681Z,58.43
2023-03-04T10:15:17.113Z,58.35
2023-03-04T10:17:55.573Z,57.92
2023-03-04T10:20:36.189Z,57.54
2023-03-04T10:23:20.017Z,57.28
2023-03-04T10:25:54.728Z,57.32
2023-03-04T10:28:31.272Z,56.96
2023-03-04T10:31:17.612Z,56.88
2023-03-04T10:33:51.242Z,57.03
2023-03-04T10:36:57.208Z,57.73
2023-03-04T10:39:45.208Z,57.12
2023-03-04T10:42:23.218Z,56.88
2023-03-04T10:45:00.193Z,56.04
2023-03-04T10:47:35.612Z,55.01
2023-03-04T10:50:15.256Z,54.55
2023-03-04T10:52:52.961Z,55.04
2023-03-04T10:55:33.625Z,54.47
2023-03-04T10:58:08.005Z,54.63
2023-03-04T11:00:41.449Z,54.65
2023-03-04T11:03:31.126Z,53.62
2023-03-04T11:06:23.142Z,53.27
2023-03-04T11:09:00.196Z,53.09
2023-03-04T11:11:46.611Z,53.72
2023-03-04T11:14:38.828Z,53.47
2023-03-04T11:17:27.599Z,52.84
2023-03-04T11:20:17.591Z,53.42
2023-03-04T11:22:50.510Z,52.75
2023-03-04T11:25:30.203Z,52.23
2023-03-04T11:28:23.127Z,52.36
2023-03-04T11:31:00.661Z,51.71
2023-03-04T11:34:07.704Z,52.03
2023-03-04T11:37:03.854Z,51.74
2023-03-04T11:39:40.182Z,52.40
2023-03-04T11:42:36.557Z,52.04
2023-03-04T11:45:28.457Z,51.42
2023-03-04T11:48:10.337Z,51.04
2023-03-04T11:51:09.631Z,50.56
2023-03-04T11:54:08.555Z,50.28
2023-03-04T11:56:51.537Z,49.81
2023-03-04T11:59:55.180Z,49.67
2023-03-04T12:02:51.207Z,49.37
2023-03-04T12:05:53.601Z,48.20
2023-03-04T12:08:35.330Z,48.27
2023-03-04T12:11:24.035Z,48.37
2023-03-04T12:14:17.198Z,48.19
2023-03-04T12:17:21.226Z,48.34
2023-03-04T12:20:22.928Z,49.25
2023-03-04T12:23:19.367Z,48.63
2023-03-04T12:26:05.844Z,49.29
2023-03-04T12:29:01.271Z,48.68
2023-03-04T12:31:50.010Z,48.60
2023-03-04T12:34:36.574Z,48.55
2023-03-04T12:37:47.479Z,47.80
2023-03-04T12:40:33.750Z,48.11
2023-03-04T12:43:37.628Z,47.43
2023-03-04T12:46:36.025Z,48.43
2023-03-04T12:49:46.582Z,48.58
2023-03-04T12:52:45.230Z,48.88
2023-03-04T12:55:21.835Z,48.77
2023-03-04T12:57:57.083Z,49.43
2023-03-04T13:00:55.903Z,50.23
2023-03-04T13:04:04.850Z,50.75
2023-03-04T13:07:12.937Z,50.17
2023-03-04T13:10:14.909Z,50.81
2023-03-04T13:13:00.397Z,51.07
2023-03-04T13:15:39.732Z,50.48
2023-03-04T13:18:35.525Z,50.29
2023-03-04T13:21:25.066Z,49.87
2023-03-04T13:23:58.299Z,49.99
2023-03-04T13:26:36.746Z,50.30
2023-03-04T13:29:29.513Z,50.60
2023-03-04T13:32:11.167Z,50.70
2023-03-04T13:34:54.380Z,50.90
2023-03-04T13:37:36.923Z,50.62
2023-03-04T13:40:37.748Z,50.06
2023-03-04T13:43:41.077Z,49.52
2023-03-04T13:46:28.088Z,50.09
2023-03-04T13:49:04.510Z,50.21
2023-03-04T13:51:46.182Z,50.97
2023-03-04T13:54:30.678Z,51.24
2023-03-04T13:57:21.660Z,51.71
2023-03-04T13:59:58.878Z,50.90
2023-03-04T14:02:35.155Z,50.82
2023-03-04T14:05:11.871Z,50.55
2023-03-04T14:07:45.236Z,50.68
2023-03-04T14:10:26.957Z,50.69
2023-03-04T14:13:01.784Z,51.06
2023-03-04T14:15:36.164Z,51.24
2023-03-04T14:18:09.557Z,51.36
2023-03-04T14:20:47.814Z,51.35
2023-03-04T14:23:37.256Z,51.36
2023-03-04T14:26:14.988Z,50.88
2023-03-04T14:28:53.457Z,50.25
2023-03-04T14:31:30.630Z,49.84
2023-03-04T14:34:05.094Z,49.62
2023-03-04T14:36:39.702Z,50.11
2023-03-04T14:39:17.950Z,50.08
2023-03-04T14:41:52.307Z,50.47
2023-03-04T14:44:50.038Z,50.92
2023-03-04T14:47:44.708Z,50.93
2023-03-04T14:50:21.369Z,51.40
2023-03-04T14:53:14.027Z,51.92
2023-03-04T14:56:11.531Z,52.16
2023-03-04T14:58:59.841Z,52.47
2023-03-04T15:01:37.082Z,52.99
2023-03-04T15:04:13.827Z,53.25
2023-03-04T15:06:54.968Z,53.30
2023-03-04T15:09:29.159Z,53.46
2023-03-04T15:12:08.383Z,53.33
2023-03-04T15:14:52.314Z,53.65
2023-03-04T15:17:41.435Z,54.06
2023-03-04T15:20:24.920Z,54.53
2023-03-04T15:23:07.507Z,53.83
2023-03-04T15:25:40.315Z,53.91
2023-03-04T15:28:20.355Z,54.02
2023-03-04T15:30:53.689Z,54.26
2023-03-04T15:33:26.620Z,54.40
2023-03-04T15:36:04.408Z,54.37
2023-03-04T15:38:37.486Z,54.36
2023-03-04T15:41:23.917Z,54.49
2023-03-04T15:43:58.754Z,54.78
2023-03-04T15:46:31.693Z,54.81
2023-03-04T15:49:04.726Z,55.06
2023-03-04T15:51:38.789Z,55.25
2023-03-04T15:54:14.633Z,55.54
2023-03-04T15:56:48.447Z,55.92
2023-03-04T15:59:22.154Z,56.15
2023-03-04T16:01:55.396Z,56.42
2023-03-04T16:04:28.719Z,56.60
2023-03-04T16:07:01.688Z,56.56
2023-03-04T16:09:35.429Z,56.75
2023-03-04T16:12:12.142Z,56.89
2023-03-04T16:14:46.755Z,57.18
2023-03-04T16:17:21.033Z,57.32
2023-03-04T16:19:54.400Z,57.61
2023-03-04T16:22:29.975Z,57.81
2023-03-04T16:25:02.987Z,58.04
2023-03-04T16:27:36.636Z,58.38
2023-03-04T16:30:16.563Z,58.48
2023-03-04T16:32:49.884Z,58.65
2023-03-04T16:35:28.862Z,58.80
2023-03-04T16:38:03.577Z,58.83
2023-03-04T16:40:37.103Z,58.89
2023-03-04T16:43:13.985Z,58.93
2023-03-04T16:45:47.388Z,59.09
2023-03-04T16:48:21.107Z,59.27
2023-03-04T16:50:54.261Z,59.55
2023-03-04T16:53:37.641Z,59.88
2023-03-04T16:56:17.402Z,60.18
2023-03-04T16:58:50.984Z,60.51
2023-03-04T17:01:30.245Z,60.92
2023-03-04T17:04:03.564Z,61.17
2023-03-04T17:06:38.276Z,61.42
2023-03-04T17:09:11.435Z,61.68
2023-03-04T17:11:45.004Z,61.88
2023-03-04T17:14:18.607Z,62.20
2023-03-04T17:16:52.264Z,62.50
2023-03-04T17:19:26.086Z,62.78
2023-03-04T17:22:03.213Z,63.19
2023-03-04T17:24:41.460Z,63.48
2023-03-04T17:27:14.542Z,63.70
2023-03-04T17:29:49.401Z,64.03
2023-03-04T17:32:22.726Z,64.29
2023-03-04T17:34:58.860Z,64.55
2023-03-04T17:37:32.022Z,64.76
2023-03-04T17:40:09.243Z,65.05
2023-03-04T17:42:44.138Z,65.34
2023-03-04T17:45:19.186Z,65.77
2023-03-04T17:47:52.322Z,66.13
2023-03-04T17:50:25.507Z,66.50
2023-03-04T17:52:59.006Z,66.77
2023-03-04T17:55:32.165Z,66.94
2023-03-04T17:58:05.486Z,67.10
2023-03-04T18:00:39.511Z,67.25
2023-03-04T18:03:17.328Z,67.29
2023-03-04T18:05:50.261Z,67.31
2023-03-04T18:08:24.374Z,67.34
2023-03-04T18:10:58.109Z,67.38
2023-03-04T18:13:31.260Z,67.30
2023-03-04T18:16:05.115Z,67.03
2023-03-04T18:18:40.928Z,66.54
2023-03-04T18:21:15.465Z,66.29
2023-03-04T18:23:48.883Z,66.14
2023-03-04T18:26:25.465Z,66.00
2023-03-04T18:29:04.235Z,66.00
2023-03-04T18:31:37.985Z,65.93
2023-03-04T18:34:12.052Z,65.82
2023-03-04T18:36:44.875Z,65.78
2023-03-04T18:39:18.297Z,65.92
2023-03-04T18:41:51.108Z,66.01
2023-03-04T18:44:23.941Z,66.04
2023-03-04T18:46:58.165Z,66.09
2023-03-04T18:49:31.886Z,66.14
2023-03-04T18:52:05.435Z,66.32
2023-03-04T18:54:38.542Z,66.46
2023-03-04T18:57:14.673Z,66.89
2023-03-04T18:59:59.515Z,67.40
2023-03-04T19:02:50.032Z,68.70
2023-03-04T19:05:29.764Z,70.00
2023-03-04T19:08:03.268Z,71.66
2023-03-04T19:10:37.078Z,72.84
2023-03-04T19:13:10.577Z,73.76
2023-03-04T19:15:43.614Z,74.29
2023-03-04T19:18:16.488Z,75.08
2023-03-04T19:20:50.244Z,76.18
2023-03-04T19:23:25.061Z,77.62
2023-03-04T19:25:57.172Z,77.62
2023-03-04T19:28:29.984Z,78.37
2023-03-04T19:31:08.097Z,79.17
2023-03-04T19:33:42.559Z,79.76
2023-03-04T19:36:15.396Z,80.21
2023-03-04T19:38:49.819Z,80.92
2023-03-04T19:41:23.528Z,81.32
2023-03-04T19:43:58.683Z,81.86
2023-03-04T19:46:32.493Z,82.22
2023-03-04T19:49:06.159Z,82.63
2023-03-04T19:51:39.658Z,83.03
2023-03-04T19:54:12.468Z,83.48
2023-03-04T19:56:46.295Z,83.77
2023-03-04T19:59:19.264Z,84.03
2023-03-04T20:01:52.426Z,84.33
2023-03-04T20:04:25.221Z,84.55
2023-03-04T20:06:59.051Z,84.99
2023-03-04T20:09:33.943Z,85.17
2023-03-04T20:12:07.464Z,85.25
2023-03-04T20:14:40.343Z,85.29
2023-03-04T20:17:15.775Z,85.35
2023-03-04T20:19:48.974Z,85.43
2023-03-04T20:22:22.041Z,85.54
2023-03-04T20:24:55.245Z,85.63
2023-03-04T20:27:28.574Z,85.83
2023-03-04T20:30:03.804Z,85.89
2023-03-04T20:32:36.684Z,86.08
2023-03-04T20:35:12.015Z,86.07
2023-03-04T20:37:45.999Z,86.22
2023-03-04T20:40:19.174Z,86.46
2023-03-04T20:42:52.270Z,86.59
2023-03-04T20:45:25.264Z,86.69
2023-03-04T20:47:57.925Z,86.91
2023-03-04T20:50:31.382Z,87.18
2023-03-04T20:53:04.501Z,87.61
2023-03-04T20:55:37.305Z,87.88
2023-03-04T20:58:10.104Z,87.97
2023-03-04T21:00:42.944Z,88.31
2023-03-04T21:03:16.262Z,88.50
2023-03-04T21:05:49.207Z,88.97
2023-03-04T21:08:23.340Z,89.37
2023-03-04T21:10:57.496Z,89.64
2023-03-04T21:13:32.759Z,89.76
2023-03-04T21:16:06.955Z,90.15
2023-03-04T21:18:40.225Z,90.47
2023-03-04T21:21:22.458Z,91.60
2023-03-04T21:23:57.288Z,91.60
2023-03-04T21:26:30.285Z,91.75
2023-03-04T21:29:03.240Z,92.09
2023-03-04T21:31:40.467Z,92.43
2023-03-04T21:34:30.461Z,92.68
2023-03-04T21:37:04.911Z,93.00
2023-03-04T21:39:38.519Z,93.27
2023-03-04T21:42:12.113Z,93.70
2023-03-04T21:44:49.596Z,94.24
2023-03-04T21:47:21.654Z,94.78
2023-03-04T21:49:55.008Z,95.29
2023-03-04T21:52:27.940Z,95.86
2023-03-04T21:55:01.072Z,96.78
2023-03-04T21:57:34.246Z,97.55
2023-03-04T22:00:08.799Z,98.49
2023-03-04T22:02:43.317Z,99.35
2023-03-04T22:05:17.951Z,100.00
2023-03-04T22:07:50.992Z,100.00
2023-03-04T22:10:24.253Z,100.00
2023-03-04T22:12:58.262Z,100.00
2023-03-04T22:15:31.176Z,100.00
2023-03-04T22:18:06.441Z,100.00
2023-03-04T22:20:42.497Z,100.00
2023-03-04T22:23:15.836Z,100.00
2023-03-04T22:25:49.420Z,100.00
2023-03-04T22:28:24.941Z,100.00
2023-03-04T22:30:58.878Z,100.00
2023-03-04T22:33:33.701Z,100.00
2023-03-04T22:36:07.782Z,100.00
2023-03-04T22:38:41.813Z,100.00
2023-03-04T22:41:17.665Z,100.00
2023-03-04T22:43:51.556Z,100.00
2023-03-04T22:46:30.475Z,100.00
2023-03-04T22:49:06.058Z,100.00
2023-03-04T22:51:41.618Z,100.00
2023-03-04T22:54:17.910Z,100.00
2023-03-04T22:56:50.734Z,100.00
2023-03-04T22:59:23.610Z,100.00
2023-03-04T23:01:57.333Z,100.00
2023-03-04T23:04:30.301Z,100.00
2023-03-04T23:07:04.470Z,100.00
2023-03-04T23:09:37.938Z,100.00
2023-03-04T23:12:11.689Z,100.00
2023-03-04T23:14:45.077Z,100.00
2023-03-04T23:17:18.716Z,100.00
2023-03-04T23:19:51.799Z,100.00
2023-03-04T23:22:25.422Z,100.00
2023-03-04T23:24:58.276Z,100.00
2023-03-04T23:27:31.157Z,100.00
2023-03-04T23:30:04.905Z,100.00
2023-03-04T23:32:38.240Z,100.00
2023-03-04T23:35:12.007Z,100.00
2023-03-04T23:37:44.803Z,100.00
2023-03-04T23:40:19.461Z,100.00
2023-03-04T23:42:53.474Z,100.00
2023-03-04T23:45:26.428Z,100.00
2023-03-04T23:47:59.927Z,100.00
2023-03-04T23:50:34.934Z,100.00
2023-03-04T23:53:08.327Z,100.00
2023-03-04T23:55:42.409Z,100.00
2023-03-04T23:58:16.023Z,100.00
